Airfield :
LOGIN :

Register | Disclaimer

   EN    FR    IT 

 










Legend :    VFR   Marginal VFR   IFR   Intensive IFR   Very Intensive IFR
Visi :
Ceiling :
>= 8 km
>= 3000ft
5 to 8 km
1000 to 3000 ft
1500m to 5 km
500 to 1000 ft
800 to 1500m
200 to 500 ft
< 800m
< 200 ft
Symbols :   Thunderstorms  Fog  Heavy snow  Heavy precipitations  Wind > 20 kt
SIGMETs :     Misc.  Thunderstorms  Icing  Turbulence  Mountain Waves  Volcanic Ashes






- Airport Elevation : 393 ft
- IATA code : TYF


ESST - Torsby

CURRENT METAR :
  • 191450Z AUTO 15011KT 9999 FEW006/// BKN012/// BKN015/// 05/05 Q1008

EXPIRED METARs :
  • 191420Z AUTO 14010KT 9999 SCT005/// BKN007/// OVC022/// 06/05 Q1008
  • 191350Z AUTO 15007KT 4400 -DZ FEW006/// BKN017/// BKN032/// 06/06 Q1007 REDZ RESHUP
  • 191320Z AUTO 15006KT 9999 FEW027/// OVC035/// 06/06 Q1007 RESHUP REDZ
  • 191250Z AUTO 15009KT 9999 -RA FEW010/// OVC014/// 07/06 Q1007 REDZ
  • 191220Z AUTO 15010KT 8000 -DZ BKN007/// OVC010/// 07/06 Q1007 RESHUP RERA

TAF N/A



MET'MAP, your aeronautical weather chart ! - Copyright ORBIFLY December 2007 - Disclaimer

ORBIFLY MET'MAP TEAM :

Programming & Development : Alexandra Zaïnal
Concept & Development : Baudouin d'Aumeries
Co-Development & Prog : Marc-Olivier Méhu
Technical & hardware support : Manuel Goepfert

Contact : metmap@orbifly.com




SOURCES & CREDITS :

   NOAA